createdAt,value
2023-04-11T00:04:15.239Z,94.49
2023-04-11T00:09:22.740Z,95.41
2023-04-11T00:14:32.700Z,96.50
2023-04-11T00:19:40.375Z,96.53
2023-04-11T00:24:48.291Z,96.47
2023-04-11T00:29:58.426Z,96.08
2023-04-11T00:35:06.921Z,95.59
2023-04-11T00:40:18.201Z,94.51
2023-04-11T00:45:26.023Z,95.00
2023-04-11T00:54:43.034Z,96.70
2023-04-11T00:59:51.777Z,96.96
2023-04-11T01:05:00.982Z,97.38
2023-04-11T01:10:11.182Z,97.42
2023-04-11T01:15:18.619Z,97.23
2023-04-11T01:20:26.589Z,97.12
2023-04-11T01:25:34.089Z,97.70
2023-04-11T01:30:41.727Z,98.11
2023-04-11T01:35:49.172Z,98.46
2023-04-11T01:40:57.212Z,98.74
2023-04-11T01:46:04.921Z,99.44
2023-04-11T01:51:12.712Z,99.61
2023-04-11T01:56:20.023Z,99.88
2023-04-11T02:01:27.735Z,100.00
2023-04-11T02:06:35.168Z,100.00
2023-04-11T02:11:42.378Z,100.00
2023-04-11T02:16:57.738Z,100.00
2023-04-11T02:22:05.364Z,100.00
2023-04-11T02:27:14.695Z,100.00
2023-04-11T02:32:22.368Z,100.00
2023-04-11T02:37:29.856Z,100.00
2023-04-11T02:42:39.375Z,100.00
2023-04-11T02:47:46.654Z,100.00
2023-04-11T02:52:54.200Z,100.00
2023-04-11T02:58:01.716Z,100.00
2023-04-11T03:03:09.558Z,100.00
2023-04-11T03:08:16.820Z,100.00
2023-04-11T03:13:22.479Z,100.00
2023-04-11T03:18:29.796Z,100.00
2023-04-11T03:23:36.893Z,100.00
2023-04-11T03:28:44.086Z,100.00
2023-04-11T03:33:50.109Z,100.00
2023-04-11T03:38:58.135Z,100.00
2023-04-11T03:44:05.927Z,100.00
2023-04-11T03:49:13.522Z,100.00
2023-04-11T03:54:21.243Z,100.00
2023-04-11T03:59:28.380Z,100.00
2023-04-11T04:04:36.901Z,100.00
2023-04-11T04:09:45.203Z,100.00
2023-04-11T04:14:53.832Z,100.00
2023-04-11T04:20:01.212Z,100.00
2023-04-11T04:25:13.039Z,100.00
2023-04-11T04:30:22.190Z,100.00
2023-04-11T04:35:31.058Z,100.00
2023-04-11T04:40:40.054Z,100.00
2023-04-11T04:45:47.729Z,100.00
2023-04-11T04:50:54.992Z,100.00
2023-04-11T04:56:02.952Z,100.00
2023-04-11T05:01:11.709Z,100.00
2023-04-11T05:06:19.961Z,100.00
2023-04-11T05:11:27.349Z,100.00
2023-04-11T05:16:34.709Z,100.00
2023-04-11T05:21:42.484Z,100.00
2023-04-11T05:26:50.163Z,100.00
2023-04-11T05:31:57.435Z,100.00
2023-04-11T05:37:03.063Z,100.00
2023-04-11T05:42:10.614Z,99.91
2023-04-11T05:47:18.333Z,99.78
2023-04-11T05:52:25.741Z,99.78
2023-04-11T05:57:32.987Z,99.56
2023-04-11T06:02:39.405Z,99.32
2023-04-11T06:07:47.260Z,99.25
2023-04-11T06:12:54.659Z,99.42
2023-04-11T06:18:02.025Z,99.62
2023-04-11T06:23:09.355Z,98.99
2023-04-11T06:28:15.429Z,98.93
2023-04-11T06:33:23.502Z,98.01
2023-04-11T06:38:30.864Z,98.27
2023-04-11T06:43:38.662Z,97.82
2023-04-11T06:48:46.113Z,96.97
2023-04-11T06:53:54.473Z,95.96
2023-04-11T06:59:01.820Z,94.89
2023-04-11T07:04:10.130Z,94.61
2023-04-11T07:09:17.565Z,95.00
2023-04-11T07:14:25.176Z,94.51
2023-04-11T07:19:32.498Z,93.43
2023-04-11T07:24:39.842Z,92.87
2023-04-11T07:29:47.391Z,92.58
2023-04-11T07:34:54.604Z,91.75
2023-04-11T07:40:04.722Z,90.72
2023-04-11T07:45:12.921Z,90.32
2023-04-11T07:50:20.711Z,89.35
2023-04-11T07:55:28.439Z,88.24
2023-04-11T08:00:36.369Z,87.40
2023-04-11T08:05:43.643Z,87.07
2023-04-11T08:10:52.131Z,86.26
2023-04-11T08:15:59.584Z,85.82
2023-04-11T08:21:08.567Z,84.07
2023-04-11T08:26:15.638Z,83.75
2023-04-11T08:31:23.332Z,82.99
2023-04-11T08:36:31.476Z,83.01
2023-04-11T08:41:39.039Z,80.95
2023-04-11T08:46:47.034Z,79.53
2023-04-11T08:51:56.671Z,79.56
2023-04-11T08:57:04.169Z,79.21
2023-04-11T09:06:14.600Z,76.59
2023-04-11T09:11:22.132Z,77.52
2023-04-11T09:16:29.408Z,76.75
2023-04-11T09:21:51.459Z,75.98
2023-04-11T09:27:11.906Z,76.14
2023-04-11T09:32:34.267Z,75.48
2023-04-11T09:37:50.056Z,74.67
2023-04-11T09:43:01.814Z,73.26
2023-04-11T09:48:10.222Z,73.89
2023-04-11T09:53:17.665Z,74.39
2023-04-11T09:58:25.894Z,73.43
2023-04-11T10:03:35.505Z,72.87
2023-04-11T10:08:44.556Z,72.34
2023-04-11T10:13:52.104Z,71.69
2023-04-11T10:19:27.602Z,69.11
2023-04-11T10:24:34.977Z,69.05
2023-04-11T10:29:53.732Z,68.45
2023-04-11T10:35:29.729Z,68.32
2023-04-11T10:40:36.987Z,67.73
2023-04-11T10:45:45.078Z,67.99
2023-04-11T10:50:53.459Z,67.81
2023-04-11T10:56:00.797Z,66.71
2023-04-11T11:06:09.772Z,66.83
2023-04-11T11:11:19.596Z,66.31
2023-04-11T11:16:28.338Z,66.06
2023-04-11T11:21:36.297Z,64.73
2023-04-11T11:26:44.979Z,63.85
2023-04-11T11:31:53.483Z,64.39
2023-04-11T11:37:04.888Z,63.32
2023-04-11T11:42:12.845Z,63.13
2023-04-11T11:47:20.487Z,63.27
2023-04-11T11:52:40.058Z,62.80
2023-04-11T11:57:49.256Z,63.20
2023-04-11T12:02:59.795Z,63.16
2023-04-11T12:08:09.229Z,62.73
2023-04-11T12:13:19.991Z,62.52
2023-04-11T12:18:28.856Z,61.74
2023-04-11T12:23:36.852Z,61.45
2023-04-11T12:28:44.308Z,60.95
2023-04-11T12:33:52.108Z,60.29
2023-04-11T12:38:59.612Z,59.46
2023-04-11T12:44:07.489Z,59.58
2023-04-11T12:49:15.717Z,59.43
2023-04-11T12:54:23.225Z,59.46
2023-04-11T12:59:32.425Z,59.06
2023-04-11T13:04:40.224Z,59.12
2023-04-11T13:09:48.053Z,58.26
2023-04-11T13:14:57.145Z,58.43
2023-04-11T13:20:07.531Z,56.40
2023-04-11T13:25:15.105Z,56.77
2023-04-11T13:30:22.628Z,58.50
2023-04-11T13:35:30.073Z,58.34
2023-04-11T13:40:38.471Z,57.36
2023-04-11T13:45:46.232Z,56.95
2023-04-11T13:50:53.810Z,56.89
2023-04-11T13:56:01.184Z,56.42
2023-04-11T14:01:10.536Z,56.72
2023-04-11T14:06:19.670Z,57.46
2023-04-11T14:11:27.395Z,58.36
2023-04-11T14:16:34.969Z,58.70
2023-04-11T14:21:42.413Z,57.89
2023-04-11T14:26:50.768Z,59.25
2023-04-11T14:31:58.725Z,59.55
2023-04-11T14:37:06.894Z,59.88
2023-04-11T14:42:14.286Z,60.13
2023-04-11T14:47:21.727Z,59.68
2023-04-11T14:52:29.342Z,59.94
2023-04-11T14:57:54.222Z,60.42
2023-04-11T15:03:02.139Z,60.86
2023-04-11T15:08:10.097Z,61.28
2023-04-11T15:13:17.307Z,61.64
2023-04-11T15:18:28.055Z,61.47
2023-04-11T15:23:35.654Z,61.95
2023-04-11T15:28:44.340Z,62.44
2023-04-11T15:33:52.454Z,62.60
2023-04-11T15:39:00.815Z,62.82
2023-04-11T15:44:08.393Z,62.94
2023-04-11T15:49:16.287Z,63.34
2023-04-11T15:54:24.268Z,63.54
2023-04-11T15:59:31.620Z,63.84
2023-04-11T16:04:39.930Z,63.97
2023-04-11T16:09:47.820Z,64.64
2023-04-11T16:14:55.285Z,64.32
2023-04-11T16:20:02.859Z,64.12
2023-04-11T16:25:11.309Z,68.85
2023-04-11T16:30:19.136Z,71.83
2023-04-11T16:35:26.626Z,74.31
2023-04-11T16:40:35.184Z,75.44
2023-04-11T16:45:42.522Z,76.67
2023-04-11T16:54:19.670Z,74.88
2023-04-11T16:59:24.060Z,76.15
2023-04-11T17:04:28.562Z,76.73
2023-04-11T17:09:32.883Z,76.62
2023-04-11T17:14:37.545Z,76.92
2023-04-11T17:19:41.710Z,76.60
2023-04-11T17:24:46.043Z,76.47
2023-04-11T17:29:50.686Z,77.19
2023-04-11T17:34:55.101Z,78.00
2023-04-11T17:39:59.090Z,79.36
2023-04-11T17:45:16.708Z,79.48
2023-04-11T17:50:22.426Z,79.46
2023-04-11T17:56:21.526Z,79.99
2023-04-11T18:01:46.240Z,80.75
2023-04-11T18:06:50.824Z,80.61
2023-04-11T18:11:57.102Z,80.77
2023-04-11T18:17:01.397Z,80.41
2023-04-11T18:22:06.227Z,80.59
2023-04-11T18:27:10.672Z,80.45
2023-04-11T18:32:16.173Z,81.03
2023-04-11T18:37:22.609Z,81.57
2023-04-11T18:42:28.135Z,81.84
2023-04-11T18:47:32.630Z,82.07
2023-04-11T18:52:37.623Z,82.88
2023-04-11T18:57:45.564Z,83.83
2023-04-11T19:02:52.657Z,84.58
2023-04-11T19:07:57.484Z,85.22
2023-04-11T19:13:02.069Z,84.87
2023-04-11T19:18:08.743Z,83.91
2023-04-11T19:23:14.096Z,83.71
2023-04-11T19:28:18.786Z,83.77
2023-04-11T19:33:25.635Z,84.04
2023-04-11T19:38:29.255Z,84.24
2023-04-11T19:43:33.722Z,84.42
2023-04-11T19:48:38.179Z,85.56
2023-04-11T19:53:42.832Z,85.99
2023-04-11T19:58:47.088Z,86.33
2023-04-11T20:03:53.598Z,86.96
2023-04-11T20:08:58.892Z,87.72
2023-04-11T20:14:03.961Z,88.45
2023-04-11T20:19:09.038Z,88.80
2023-04-11T20:24:15.060Z,88.43
2023-04-11T20:29:20.719Z,88.41
2023-04-11T20:34:25.321Z,88.35
2023-04-11T20:39:30.265Z,88.01
2023-04-11T20:44:35.806Z,87.70
2023-04-11T20:49:40.149Z,87.78
2023-04-11T20:54:44.384Z,88.09
2023-04-11T20:59:50.116Z,87.96
2023-04-11T21:04:54.945Z,87.98
2023-04-11T21:10:01.180Z,88.15
2023-04-11T21:15:08.218Z,88.40
2023-04-11T21:20:17.883Z,88.58
2023-04-11T21:25:23.327Z,88.68
2023-04-11T21:30:27.554Z,89.10
2023-04-11T21:35:32.638Z,89.28
2023-04-11T21:40:36.781Z,89.64
2023-04-11T21:45:40.995Z,90.16
2023-04-11T21:50:45.996Z,90.64
2023-04-11T21:55:50.223Z,90.92
2023-04-11T22:00:54.982Z,91.89
2023-04-11T22:05:59.413Z,91.84
2023-04-11T22:11:07.413Z,92.40
2023-04-11T22:16:13.648Z,92.23
2023-04-11T22:21:19.448Z,92.61
2023-04-11T22:26:29.101Z,92.59
2023-04-11T22:31:34.720Z,93.69
2023-04-11T22:36:40.057Z,94.30
2023-04-11T22:41:47.284Z,94.51
2023-04-11T22:47:07.458Z,95.21
2023-04-11T22:52:14.526Z,94.68
2023-04-11T22:57:17.554Z,94.68
2023-04-11T23:02:23.122Z,94.99
2023-04-11T23:07:28.061Z,94.80
2023-04-11T23:12:32.607Z,94.75
2023-04-11T23:17:38.009Z,94.96
2023-04-11T23:22:43.584Z,94.63
2023-04-11T23:27:47.860Z,94.50
2023-04-11T23:32:52.975Z,93.96
2023-04-11T23:37:57.138Z,94.47
2023-04-11T23:43:01.156Z,94.88
2023-04-11T23:48:06.306Z,95.02
2023-04-11T23:53:11.415Z,95.49
2023-04-11T23:58:16.038Z,95.44
